RJEO(METAR)
02/18 14:00
RJEO 180500Z 30015KT 9999 SCT040 02/M07 Q1021 RMK A3017=
戻る
トップページへ戻る
IMOC Co,.Ltd.